createdAt,value
2023-04-21T00:00:54.216Z,1016.11
2023-04-21T00:01:54.221Z,1016.11
2023-04-21T00:02:54.291Z,1016.09
2023-04-21T00:03:54.295Z,1016.09
2023-04-21T00:04:54.324Z,1016.10
2023-04-21T00:05:54.342Z,1016.11
2023-04-21T00:06:54.214Z,1016.11
2023-04-21T00:07:54.202Z,1016.10
2023-04-21T00:08:54.214Z,1016.10
2023-04-21T00:09:54.202Z,1016.10
2023-04-21T00:10:54.209Z,1016.10
2023-04-21T00:11:54.200Z,1016.11
2023-04-21T00:12:54.210Z,1016.10
2023-04-21T00:13:54.196Z,1016.10
2023-04-21T00:14:54.197Z,1016.09
2023-04-21T00:15:54.218Z,1016.07
2023-04-21T00:16:54.196Z,1016.11
2023-04-21T00:17:54.249Z,1016.07
2023-04-21T00:18:54.196Z,1016.05
2023-04-21T00:19:54.194Z,1016.08
2023-04-21T00:20:54.213Z,1016.07
2023-04-21T00:21:54.184Z,1016.07
2023-04-21T00:22:54.189Z,1016.08
2023-04-21T00:23:54.182Z,1016.02
2023-04-21T00:24:54.185Z,1016.07
2023-04-21T00:25:54.192Z,1016.05
2023-04-21T00:26:54.186Z,1016.05
2023-04-21T00:27:54.183Z,1016.02
2023-04-21T00:28:54.186Z,1015.98
2023-04-21T00:29:54.196Z,1015.98
2023-04-21T00:30:54.182Z,1016.03
2023-04-21T00:31:54.315Z,1016.02
2023-04-21T00:32:54.204Z,1015.98
2023-04-21T00:33:54.189Z,1015.99
2023-04-21T00:34:54.179Z,1016.01
2023-04-21T00:35:54.186Z,1015.97
2023-04-21T00:36:54.216Z,1015.96
2023-04-21T00:37:54.190Z,1015.97
2023-04-21T00:38:54.176Z,1015.98
2023-04-21T00:39:54.186Z,1015.95
2023-04-21T00:40:54.168Z,1015.98
2023-04-21T00:41:54.170Z,1015.94
2023-04-21T00:42:54.178Z,1015.97
2023-04-21T00:43:54.161Z,1015.97
2023-04-21T00:44:54.165Z,1015.98
2023-04-21T00:45:54.188Z,1015.99
2023-04-21T00:46:54.227Z,1015.95
2023-04-21T00:47:54.239Z,1015.97
2023-04-21T00:48:54.152Z,1015.92
2023-04-21T00:49:54.149Z,1015.95
2023-04-21T00:50:54.165Z,1015.95
2023-04-21T00:51:54.148Z,1015.92
2023-04-21T00:52:54.182Z,1015.92
2023-04-21T00:53:54.144Z,1015.91
2023-04-21T00:54:54.143Z,1015.90
2023-04-21T00:55:54.143Z,1015.92
2023-04-21T00:56:54.144Z,1015.88
2023-04-21T00:57:54.141Z,1015.89
2023-04-21T00:58:54.136Z,1015.91
2023-04-21T00:59:54.139Z,1015.87
2023-04-21T01:00:54.206Z,1015.87
2023-04-21T01:01:54.216Z,1015.86
2023-04-21T01:02:54.350Z,1015.80
2023-04-21T01:03:54.267Z,1015.84
2023-04-21T01:04:54.133Z,1015.86
2023-04-21T01:05:54.126Z,1015.83
2023-04-21T01:06:54.122Z,1015.89
2023-04-21T01:07:54.117Z,1015.86
2023-04-21T01:08:54.149Z,1015.85
2023-04-21T01:09:54.134Z,1015.87
2023-04-21T01:10:54.119Z,1015.83
2023-04-21T01:11:54.122Z,1015.85
2023-04-21T01:12:54.122Z,1015.81
2023-04-21T01:13:54.107Z,1015.88
2023-04-21T01:14:54.119Z,1015.85
2023-04-21T01:15:54.105Z,1015.85
2023-04-21T01:16:54.237Z,1015.85
2023-04-21T01:17:54.166Z,1015.84
2023-04-21T01:18:54.115Z,1015.86
2023-04-21T01:19:54.103Z,1015.87
2023-04-21T01:20:54.110Z,1015.89
2023-04-21T01:21:54.106Z,1015.87
2023-04-21T01:22:54.101Z,1015.85
2023-04-21T01:23:54.112Z,1015.84
2023-04-21T01:24:54.125Z,1015.88
2023-04-21T01:25:54.093Z,1015.82
2023-04-21T01:26:54.096Z,1015.84
2023-04-21T01:27:54.110Z,1015.82
2023-04-21T01:28:54.094Z,1015.80
2023-04-21T01:29:54.090Z,1015.77
2023-04-21T01:30:54.088Z,1015.81
2023-04-21T01:31:54.140Z,1015.78
2023-04-21T01:32:54.104Z,1015.78
2023-04-21T01:33:54.083Z,1015.80
2023-04-21T01:34:54.096Z,1015.81
2023-04-21T01:35:54.087Z,1015.76
2023-04-21T01:36:54.077Z,1015.75
2023-04-21T01:37:54.075Z,1015.75
2023-04-21T01:38:54.078Z,1015.75
2023-04-21T01:39:54.074Z,1015.77
2023-04-21T01:40:54.094Z,1015.74
2023-04-21T01:41:54.068Z,1015.73
2023-04-21T01:42:54.076Z,1015.74
2023-04-21T01:43:54.067Z,1015.74
2023-04-21T01:44:54.124Z,1015.72
2023-04-21T01:45:54.126Z,1015.76
2023-04-21T01:46:54.064Z,1015.71
2023-04-21T01:47:54.129Z,1015.74
2023-04-21T01:48:54.069Z,1015.71
2023-04-21T01:49:54.060Z,1015.71
2023-04-21T01:50:54.058Z,1015.68
2023-04-21T01:51:54.056Z,1015.69
2023-04-21T01:52:54.057Z,1015.70
2023-04-21T01:53:54.045Z,1015.70
2023-04-21T01:54:54.053Z,1015.67
2023-04-21T01:55:54.053Z,1015.67
2023-04-21T01:56:54.145Z,1015.68
2023-04-21T01:57:54.041Z,1015.67
2023-04-21T01:58:54.046Z,1015.66
2023-04-21T01:59:54.041Z,1015.67
2023-04-21T02:00:54.042Z,1015.67
2023-04-21T02:01:54.057Z,1015.68
2023-04-21T02:02:54.157Z,1015.73
2023-04-21T02:03:54.155Z,1015.68
2023-04-21T02:04:54.036Z,1015.66
2023-04-21T02:05:54.050Z,1015.65
2023-04-21T02:06:54.039Z,1015.68
2023-04-21T02:07:54.029Z,1015.66
2023-04-21T02:08:54.026Z,1015.64
2023-04-21T02:09:54.024Z,1015.59
2023-04-21T02:10:54.037Z,1015.65
2023-04-21T02:11:54.013Z,1015.58
2023-04-21T02:12:54.043Z,1015.59
2023-04-21T02:13:54.016Z,1015.56
2023-04-21T02:14:54.015Z,1015.60
2023-04-21T02:16:05.931Z,1015.55
2023-04-21T02:16:54.041Z,1015.51
2023-04-21T02:17:54.076Z,1015.56
2023-04-21T02:18:54.022Z,1015.52
2023-04-21T02:19:54.013Z,1015.51
2023-04-21T02:20:54.007Z,1015.52
2023-04-21T02:21:53.999Z,1015.51
2023-04-21T02:22:54.012Z,1015.50
2023-04-21T02:23:53.997Z,1015.51
2023-04-21T02:24:53.998Z,1015.50
2023-04-21T02:25:53.990Z,1015.53
2023-04-21T02:26:53.992Z,1015.55
2023-04-21T02:27:53.995Z,1015.49
2023-04-21T02:28:54.026Z,1015.54
2023-04-21T02:29:53.983Z,1015.54
2023-04-21T02:30:54.023Z,1015.59
2023-04-21T02:32:02.973Z,1015.54
2023-04-21T02:32:54.271Z,1015.51
2023-04-21T02:33:53.976Z,1015.54
2023-04-21T02:34:53.989Z,1015.54
2023-04-21T02:35:53.989Z,1015.49
2023-04-21T02:36:53.986Z,1015.52
2023-04-21T02:37:53.970Z,1015.53
2023-04-21T02:38:53.968Z,1015.54
2023-04-21T02:39:53.969Z,1015.56
2023-04-21T02:40:53.969Z,1015.53
2023-04-21T02:41:53.961Z,1015.55
2023-04-21T02:42:53.968Z,1015.53
2023-04-21T02:43:54.006Z,1015.54
2023-04-21T02:44:53.983Z,1015.54
2023-04-21T02:45:53.962Z,1015.50
2023-04-21T02:46:54.001Z,1015.53
2023-04-21T02:47:53.974Z,1015.52
2023-04-21T02:48:53.951Z,1015.48
2023-04-21T02:49:53.943Z,1015.52
2023-04-21T02:50:53.974Z,1015.48
2023-04-21T02:51:53.940Z,1015.47
2023-04-21T02:52:53.943Z,1015.46
2023-04-21T02:53:53.934Z,1015.47
2023-04-21T02:54:53.957Z,1015.51
2023-04-21T02:55:53.945Z,1015.50
2023-04-21T02:56:53.942Z,1015.48
2023-04-21T02:57:53.946Z,1015.47
2023-04-21T02:58:53.931Z,1015.47
2023-04-21T02:59:53.932Z,1015.45
2023-04-21T03:00:53.970Z,1015.45
2023-04-21T03:01:53.924Z,1015.49
2023-04-21T03:02:54.097Z,1015.47
2023-04-21T03:03:54.017Z,1015.47
2023-04-21T03:04:53.925Z,1015.49
2023-04-21T03:05:53.913Z,1015.47
2023-04-21T03:06:53.912Z,1015.44
2023-04-21T03:07:53.914Z,1015.44
2023-04-21T03:08:53.916Z,1015.47
2023-04-21T03:09:53.898Z,1015.50
2023-04-21T03:10:53.912Z,1015.42
2023-04-21T03:11:53.899Z,1015.44
2023-04-21T03:12:53.905Z,1015.42
2023-04-21T03:13:53.899Z,1015.44
2023-04-21T03:14:53.903Z,1015.45
2023-04-21T03:15:53.893Z,1015.44
2023-04-21T03:16:54.032Z,1015.43
2023-04-21T03:17:53.935Z,1015.43
2023-04-21T03:18:53.893Z,1015.43
2023-04-21T03:19:53.889Z,1015.42
2023-04-21T03:20:53.904Z,1015.42
2023-04-21T03:21:53.882Z,1015.45
2023-04-21T03:22:53.882Z,1015.41
2023-04-21T03:23:53.900Z,1015.45
2023-04-21T03:24:53.878Z,1015.46
2023-04-21T03:25:53.880Z,1015.44
2023-04-21T03:26:53.882Z,1015.44
2023-04-21T03:27:53.878Z,1015.43
2023-04-21T03:28:53.872Z,1015.45
2023-04-21T03:29:53.884Z,1015.49
2023-04-21T03:30:53.869Z,1015.48
2023-04-21T03:31:53.935Z,1015.47
2023-04-21T03:32:53.914Z,1015.44
2023-04-21T03:33:53.863Z,1015.44
2023-04-21T03:34:53.872Z,1015.44
2023-04-21T03:35:53.859Z,1015.46
2023-04-21T03:36:53.858Z,1015.42
2023-04-21T03:37:53.860Z,1015.43
2023-04-21T03:38:53.860Z,1015.45
2023-04-21T03:39:53.845Z,1015.46
2023-04-21T03:40:53.848Z,1015.46
2023-04-21T03:41:53.845Z,1015.43
2023-04-21T03:42:53.844Z,1015.42
2023-04-21T03:43:53.843Z,1015.45
2023-04-21T03:44:53.860Z,1015.45
2023-04-21T03:45:53.871Z,1015.45
2023-04-21T03:46:53.838Z,1015.48
2023-04-21T03:47:53.906Z,1015.44
2023-04-21T03:48:53.859Z,1015.44
2023-04-21T03:49:53.832Z,1015.50
2023-04-21T03:50:53.852Z,1015.44
2023-04-21T03:51:53.826Z,1015.45
2023-04-21T03:52:53.823Z,1015.47
2023-04-21T03:53:53.832Z,1015.44
2023-04-21T03:54:53.820Z,1015.45
2023-04-21T03:55:53.817Z,1015.45
2023-04-21T03:56:53.819Z,1015.43
2023-04-21T03:57:53.813Z,1015.43
2023-04-21T03:58:53.810Z,1015.46
2023-04-21T03:59:53.816Z,1015.38
2023-04-21T04:00:53.808Z,1015.43
2023-04-21T04:01:53.808Z,1015.41
2023-04-21T04:02:53.901Z,1015.45
2023-04-21T04:03:53.908Z,1015.43
2023-04-21T04:04:53.923Z,1015.46
2023-04-21T04:05:53.798Z,1015.46
2023-04-21T04:06:53.793Z,1015.52
2023-04-21T04:07:53.785Z,1015.49
2023-04-21T04:08:53.797Z,1015.49
2023-04-21T04:09:53.788Z,1015.48
2023-04-21T04:10:53.785Z,1015.48
2023-04-21T04:11:53.785Z,1015.54
2023-04-21T04:12:53.782Z,1015.51
2023-04-21T04:13:53.778Z,1015.49
2023-04-21T04:14:53.778Z,1015.52
2023-04-21T04:15:53.840Z,1015.52
2023-04-21T04:16:53.778Z,1015.53
2023-04-21T04:17:53.775Z,1015.55
2023-04-21T04:18:53.778Z,1015.54
2023-04-21T04:19:53.768Z,1015.52
2023-04-21T04:20:53.783Z,1015.55
2023-04-21T04:21:53.777Z,1015.50
2023-04-21T04:22:53.772Z,1015.59
2023-04-21T04:23:53.771Z,1015.56
2023-04-21T04:24:53.758Z,1015.51
2023-04-21T04:25:53.757Z,1015.56
2023-04-21T04:26:53.752Z,1015.59
2023-04-21T04:27:53.758Z,1015.55
2023-04-21T04:28:53.745Z,1015.58
2023-04-21T04:29:53.747Z,1015.57
2023-04-21T04:30:53.753Z,1015.58
2023-04-21T04:31:53.740Z,1015.59
2023-04-21T04:32:53.759Z,1015.62
2023-04-21T04:33:55.580Z,1015.63
2023-04-21T04:34:53.731Z,1015.62
2023-04-21T04:35:53.722Z,1015.65
2023-04-21T04:36:53.862Z,1015.63
2023-04-21T04:37:53.728Z,1015.61
2023-04-21T04:38:53.724Z,1015.60
2023-04-21T04:39:53.723Z,1015.63
2023-04-21T04:40:53.721Z,1015.64
2023-04-21T04:41:53.714Z,1015.64
2023-04-21T04:42:53.722Z,1015.60
2023-04-21T04:43:53.740Z,1015.66
2023-04-21T04:44:53.717Z,1015.63
2023-04-21T04:45:53.708Z,1015.63
2023-04-21T04:46:53.760Z,1015.63
2023-04-21T04:47:53.749Z,1015.64
2023-04-21T04:48:53.698Z,1015.61
2023-04-21T04:49:53.703Z,1015.68
2023-04-21T04:50:53.695Z,1015.67
2023-04-21T04:51:53.700Z,1015.72
2023-04-21T04:52:53.722Z,1015.72
2023-04-21T04:53:53.696Z,1015.70
2023-04-21T04:54:53.688Z,1015.73
2023-04-21T04:55:53.686Z,1015.73
2023-04-21T04:56:53.685Z,1015.74
2023-04-21T04:57:53.686Z,1015.74
2023-04-21T04:58:53.679Z,1015.71
2023-04-21T04:59:53.676Z,1015.73
2023-04-21T05:00:53.673Z,1015.71
2023-04-21T05:01:53.681Z,1015.71
2023-04-21T05:02:53.788Z,1015.74
2023-04-21T05:03:53.787Z,1015.78
2023-04-21T05:04:53.714Z,1015.75
2023-04-21T05:05:53.686Z,1015.79
2023-04-21T05:06:53.671Z,1015.71
2023-04-21T05:07:53.666Z,1015.76
2023-04-21T05:08:53.679Z,1015.78
2023-04-21T05:09:53.657Z,1015.73
2023-04-21T05:10:53.666Z,1015.75
2023-04-21T05:11:53.656Z,1015.77
2023-04-21T05:12:53.649Z,1015.80
2023-04-21T05:13:53.660Z,1015.78
2023-04-21T05:14:53.650Z,1015.78
2023-04-21T05:15:53.649Z,1015.83
2023-04-21T05:16:53.687Z,1015.82
2023-04-21T05:17:53.667Z,1015.86
2023-04-21T05:18:53.639Z,1015.86
2023-04-21T05:19:53.638Z,1015.84
2023-04-21T05:20:53.643Z,1015.85
2023-04-21T05:21:53.640Z,1015.87
2023-04-21T05:22:53.627Z,1015.83
2023-04-21T05:23:53.634Z,1015.86
2023-04-21T05:24:53.655Z,1015.85
2023-04-21T05:25:53.626Z,1015.84
2023-04-21T05:26:53.629Z,1015.90
2023-04-21T05:27:53.625Z,1015.85
2023-04-21T05:28:53.619Z,1015.86
2023-04-21T05:29:53.624Z,1015.85
2023-04-21T05:30:53.613Z,1015.88
2023-04-21T05:31:53.694Z,1015.87
2023-04-21T05:32:53.638Z,1015.89
2023-04-21T05:33:53.613Z,1015.86
2023-04-21T05:34:53.610Z,1015.87
2023-04-21T05:35:53.601Z,1015.84
2023-04-21T05:36:53.603Z,1015.86
2023-04-21T05:37:53.605Z,1015.80
2023-04-21T05:38:53.597Z,1015.89
2023-04-21T05:39:53.605Z,1015.85
2023-04-21T05:40:53.610Z,1015.87
2023-04-21T05:41:53.599Z,1015.92
2023-04-21T05:42:53.591Z,1015.90
2023-04-21T05:43:53.601Z,1015.87
2023-04-21T05:44:53.585Z,1015.88
2023-04-21T05:45:53.621Z,1015.90
2023-04-21T05:46:53.579Z,1015.91
2023-04-21T05:47:53.690Z,1015.91
2023-04-21T05:48:53.581Z,1015.88
2023-04-21T05:49:53.651Z,1015.86
2023-04-21T05:50:53.574Z,1015.86
2023-04-21T05:51:53.574Z,1015.87
2023-04-21T05:52:53.565Z,1015.88
2023-04-21T05:53:53.570Z,1015.89
2023-04-21T05:54:53.572Z,1015.88
2023-04-21T05:55:53.580Z,1015.86
2023-04-21T05:56:53.583Z,1015.88
2023-04-21T05:57:53.573Z,1015.85
2023-04-21T05:58:53.574Z,1015.87
2023-04-21T05:59:53.563Z,1015.88
2023-04-21T06:00:53.554Z,1015.86
2023-04-21T06:01:53.559Z,1015.83
2023-04-21T06:02:53.722Z,1015.83
2023-04-21T06:03:53.745Z,1015.84
2023-04-21T06:04:53.799Z,1015.80
2023-04-21T06:05:53.619Z,1015.83
2023-04-21T06:06:53.546Z,1015.77
2023-04-21T06:07:53.546Z,1015.76
2023-04-21T06:08:53.532Z,1015.81
2023-04-21T06:09:53.552Z,1015.74
2023-04-21T06:10:53.541Z,1015.74
2023-04-21T06:11:53.534Z,1015.75
2023-04-21T06:12:53.547Z,1015.75
2023-04-21T06:13:53.534Z,1015.76
2023-04-21T06:14:53.524Z,1015.79
2023-04-21T06:15:53.573Z,1015.76
2023-04-21T06:16:53.528Z,1015.78
2023-04-21T06:17:53.546Z,1015.77
2023-04-21T06:18:53.534Z,1015.77
2023-04-21T06:19:53.522Z,1015.77
2023-04-21T06:20:53.523Z,1015.80
2023-04-21T06:21:53.523Z,1015.79
2023-04-21T06:22:53.510Z,1015.79
2023-04-21T06:23:53.517Z,1015.76
2023-04-21T06:24:53.512Z,1015.80
2023-04-21T06:25:53.511Z,1015.78
2023-04-21T06:26:53.538Z,1015.77
2023-04-21T06:27:53.516Z,1015.77
2023-04-21T06:28:53.527Z,1015.80
2023-04-21T06:29:53.510Z,1015.78
2023-04-21T06:30:53.504Z,1015.80
2023-04-21T06:31:53.547Z,1015.74
2023-04-21T06:32:53.556Z,1015.74
2023-04-21T06:33:53.502Z,1015.75
2023-04-21T06:34:53.496Z,1015.77
2023-04-21T06:35:53.500Z,1015.75
2023-04-21T06:36:53.490Z,1015.80
2023-04-21T06:37:53.508Z,1015.77
2023-04-21T06:38:53.502Z,1015.81
2023-04-21T06:39:53.492Z,1015.77
2023-04-21T06:40:53.485Z,1015.76
2023-04-21T06:41:53.495Z,1015.69
2023-04-21T06:42:53.483Z,1015.66
2023-04-21T06:43:53.488Z,1015.71
2023-04-21T06:44:53.500Z,1015.70
2023-04-21T06:45:53.509Z,1015.74
2023-04-21T06:46:53.525Z,1015.73
2023-04-21T06:47:53.547Z,1015.73
2023-04-21T06:48:53.483Z,1015.72
2023-04-21T06:49:53.476Z,1015.74
2023-04-21T06:50:53.471Z,1015.71
2023-04-21T06:51:53.483Z,1015.71
2023-04-21T06:52:53.480Z,1015.69
2023-04-21T06:53:53.475Z,1015.74
2023-04-21T06:54:53.480Z,1015.74
2023-04-21T06:55:53.474Z,1015.70
2023-04-21T06:56:53.465Z,1015.73
2023-04-21T06:57:53.480Z,1015.68
2023-04-21T06:58:53.463Z,1015.68
2023-04-21T06:59:53.469Z,1015.69
2023-04-21T07:00:53.520Z,1015.69
2023-04-21T07:01:53.465Z,1015.73
2023-04-21T07:02:53.608Z,1015.75
2023-04-21T07:03:53.628Z,1015.77
2023-04-21T07:04:53.535Z,1015.80
2023-04-21T07:05:53.462Z,1015.75
2023-04-21T07:06:53.459Z,1015.75
2023-04-21T07:07:53.475Z,1015.74
2023-04-21T07:08:53.459Z,1015.76
2023-04-21T07:09:53.470Z,1015.75
2023-04-21T07:10:53.481Z,1015.72
2023-04-21T07:11:53.463Z,1015.80
2023-04-21T07:12:53.463Z,1015.79
2023-04-21T07:13:53.462Z,1015.83
2023-04-21T07:14:53.458Z,1015.77
2023-04-21T07:15:53.466Z,1015.82
2023-04-21T07:16:53.506Z,1015.81
2023-04-21T07:17:53.506Z,1015.79
2023-04-21T07:18:55.117Z,1015.84
2023-04-21T07:19:53.469Z,1015.83
2023-04-21T07:20:53.456Z,1015.88
2023-04-21T07:21:53.452Z,1015.79
2023-04-21T07:22:53.472Z,1015.84
2023-04-21T07:23:53.459Z,1015.82
2023-04-21T07:24:53.452Z,1015.88
2023-04-21T07:25:53.462Z,1015.85
2023-04-21T07:26:53.456Z,1015.88
2023-04-21T07:27:53.460Z,1015.91
2023-04-21T07:28:53.457Z,1015.89
2023-04-21T07:29:53.463Z,1015.93
2023-04-21T07:30:53.542Z,1015.89
2023-04-21T07:31:53.459Z,1015.97
2023-04-21T07:32:53.537Z,1015.95
2023-04-21T07:33:53.468Z,1015.92
2023-04-21T07:34:53.469Z,1015.95
2023-04-21T07:35:53.474Z,1015.92
2023-04-21T07:36:53.457Z,1015.95
2023-04-21T07:37:53.461Z,1016.02
2023-04-21T07:38:53.458Z,1016.20
2023-04-21T07:39:53.453Z,1019.98
2023-04-21T07:40:53.456Z,1027.37
2023-04-21T07:41:53.461Z,1029.24
2023-04-21T07:42:53.468Z,1028.72
2023-04-21T07:43:53.927Z,1028.70
2023-04-21T07:44:53.463Z,1029.13
2023-04-21T07:45:53.490Z,1029.40
2023-04-21T07:46:53.463Z,1029.79
2023-04-21T07:47:53.553Z,1030.44
2023-04-21T07:48:53.483Z,1030.18
2023-04-21T07:49:53.473Z,1030.23
2023-04-21T07:50:53.483Z,1031.65
2023-04-21T07:51:53.472Z,1032.60
2023-04-21T07:52:53.470Z,1032.97
2023-04-21T07:53:53.490Z,1033.25
2023-04-21T07:54:53.474Z,1033.59
2023-04-21T07:55:53.488Z,1033.59
2023-04-21T07:56:53.507Z,1033.72
2023-04-21T07:57:53.487Z,1033.72
2023-04-21T07:58:53.491Z,1032.93
2023-04-21T07:59:53.488Z,1032.86
2023-04-21T08:00:53.486Z,1033.14
2023-04-21T08:01:53.496Z,1032.86
2023-04-21T08:02:53.620Z,1033.32
2023-04-21T08:03:53.648Z,1034.51
2023-04-21T08:04:53.566Z,1034.53
2023-04-21T08:05:53.616Z,1033.38
2023-04-21T08:06:53.546Z,1032.42
2023-04-21T08:07:53.527Z,1031.16
2023-04-21T08:08:53.524Z,1029.44
2023-04-21T08:09:53.520Z,1029.35
2023-04-21T08:10:53.520Z,1030.05
2023-04-21T08:11:53.527Z,1030.76
2023-04-21T08:12:53.523Z,1030.46
2023-04-21T08:13:53.531Z,1030.07
2023-04-21T08:14:54.949Z,1029.40
2023-04-21T08:15:53.595Z,1026.89
2023-04-21T08:16:56.053Z,1023.72
2023-04-21T08:17:53.593Z,1021.78
2023-04-21T08:18:53.548Z,1020.86
2023-04-21T08:19:53.564Z,1020.27
2023-04-21T08:20:53.585Z,1020.19
2023-04-21T08:21:53.603Z,1020.68
2023-04-21T08:22:53.628Z,1021.45
2023-04-21T08:23:53.704Z,1022.05
2023-04-21T08:24:53.625Z,1023.11
2023-04-21T08:25:53.595Z,1025.39
2023-04-21T08:26:53.592Z,1027.39
2023-04-21T08:27:53.610Z,1026.93
2023-04-21T08:28:53.627Z,1026.53
2023-04-21T08:29:53.647Z,1026.06
2023-04-21T08:30:53.645Z,1024.32
2023-04-21T08:31:53.698Z,1024.02
2023-04-21T08:32:53.710Z,1024.67
2023-04-21T08:34:00.949Z,1024.35
2023-04-21T08:34:53.665Z,1023.28
2023-04-21T08:36:03.919Z,1023.09
2023-04-21T08:36:53.763Z,1022.78
2023-04-21T08:37:53.766Z,1022.91
2023-04-21T08:38:53.687Z,1022.53
2023-04-21T08:39:53.701Z,1021.39
2023-04-21T08:40:53.709Z,1021.29
2023-04-21T08:41:53.723Z,1021.08
2023-04-21T08:42:53.730Z,1020.55
2023-04-21T08:43:53.727Z,1019.95
2023-04-21T08:44:53.768Z,1019.70
2023-04-21T08:45:53.809Z,1019.57
2023-04-21T08:46:53.765Z,1019.26
2023-04-21T08:47:53.813Z,1018.90
2023-04-21T08:48:55.237Z,1018.64
2023-04-21T08:49:53.794Z,1018.27
2023-04-21T08:50:53.890Z,1017.93
2023-04-21T08:51:53.814Z,1017.79
2023-04-21T08:52:53.848Z,1017.63
2023-04-21T08:53:53.847Z,1017.25
2023-04-21T08:54:53.855Z,1017.15
2023-04-21T08:56:07.365Z,1017.10
2023-04-21T08:57:01.462Z,1017.07
2023-04-21T08:57:53.880Z,1017.02
2023-04-21T08:58:53.905Z,1016.94
2023-04-21T08:59:53.912Z,1016.94
2023-04-21T09:00:53.952Z,1016.93
2023-04-21T09:01:53.922Z,1016.91
2023-04-21T09:03:00.273Z,1016.92
2023-04-21T09:03:54.101Z,1016.85
2023-04-21T09:04:54.415Z,1016.81
2023-04-21T09:05:54.233Z,1016.80
2023-04-21T09:06:54.022Z,1016.83
2023-04-21T09:07:53.997Z,1016.85
2023-04-21T09:08:54.262Z,1016.81
2023-04-21T09:09:54.046Z,1016.77
2023-04-21T09:10:55.316Z,1016.75
2023-04-21T09:11:54.049Z,1016.78
2023-04-21T09:12:54.073Z,1016.77
2023-04-21T09:13:54.075Z,1016.76
2023-04-21T09:14:54.091Z,1016.73
2023-04-21T09:15:54.105Z,1016.77
2023-04-21T09:16:54.157Z,1016.71
2023-04-21T09:17:54.164Z,1016.72
2023-04-21T09:18:54.154Z,1016.74
2023-04-21T09:19:54.164Z,1016.74
2023-04-21T09:20:54.177Z,1016.77
2023-04-21T09:21:54.187Z,1016.77
2023-04-21T09:22:54.206Z,1016.72
2023-04-21T09:23:54.223Z,1016.76
2023-04-21T09:24:54.280Z,1016.77
2023-04-21T09:25:54.249Z,1016.81
2023-04-21T09:26:54.267Z,1016.76
2023-04-21T09:27:54.271Z,1016.80
2023-04-21T09:28:54.298Z,1016.84
2023-04-21T09:29:54.300Z,1016.85
2023-04-21T09:30:54.344Z,1016.87
2023-04-21T09:31:54.334Z,1016.82
2023-04-21T09:32:54.373Z,1016.81
2023-04-21T09:33:58.690Z,1016.84
2023-04-21T09:34:54.384Z,1016.80
2023-04-21T09:35:54.398Z,1016.86
2023-04-21T09:36:54.408Z,1016.88
2023-04-21T09:37:54.425Z,1016.87
2023-04-21T09:39:03.736Z,1016.84
2023-04-21T09:40:54.521Z,1016.85
2023-04-21T09:41:54.491Z,1016.87
2023-04-21T09:42:54.517Z,1016.88
2023-04-21T09:43:54.517Z,1016.86
2023-04-21T09:45:08.919Z,1016.81
2023-04-21T09:45:54.621Z,1016.81
2023-04-21T09:46:54.610Z,1016.80
2023-04-21T09:47:54.624Z,1015.52
2023-04-21T09:48:54.592Z,1015.49
2023-04-21T09:49:54.614Z,1015.52
2023-04-21T09:51:20.871Z,1015.54
2023-04-21T09:52:10.372Z,1015.53
2023-04-21T09:52:54.653Z,1015.49
2023-04-21T09:53:54.670Z,1015.55
2023-04-21T09:54:54.689Z,1015.46
2023-04-21T09:55:54.713Z,1015.48
2023-04-21T09:56:54.747Z,1015.46
2023-04-21T09:57:54.721Z,1015.46
2023-04-21T09:58:54.742Z,1015.49
2023-04-21T09:59:54.744Z,1015.44
2023-04-21T10:00:54.760Z,1015.47
2023-04-21T10:01:54.804Z,1015.44
2023-04-21T10:02:54.881Z,1015.44
2023-04-21T10:03:54.950Z,1015.50
2023-04-21T10:04:55.017Z,1015.50
2023-04-21T10:05:54.915Z,1015.47
2023-04-21T10:06:54.832Z,1015.41
2023-04-21T10:07:54.843Z,1015.44
2023-04-21T10:08:54.852Z,1015.39
2023-04-21T10:09:54.867Z,1015.42
2023-04-21T10:10:54.879Z,1015.41
2023-04-21T10:11:54.885Z,1015.42
2023-04-21T10:12:55.154Z,1015.40
2023-04-21T10:13:54.902Z,1015.34
2023-04-21T10:14:54.906Z,1015.35
2023-04-21T10:15:54.950Z,1015.40
2023-04-21T10:16:54.929Z,1015.29
2023-04-21T10:17:54.988Z,1015.34
2023-04-21T10:18:54.939Z,1015.27
2023-04-21T10:19:54.935Z,1015.33
2023-04-21T10:20:54.961Z,1015.29
2023-04-21T10:21:54.958Z,1015.24
2023-04-21T10:22:54.970Z,1015.24
2023-04-21T10:23:54.966Z,1015.29
2023-04-21T10:24:54.982Z,1015.26
2023-04-21T10:25:54.987Z,1015.24
2023-04-21T10:26:55.402Z,1015.25
2023-04-21T10:27:54.999Z,1015.17
2023-04-21T10:28:55.026Z,1015.19
2023-04-21T10:29:57.140Z,1015.29
2023-04-21T10:30:55.019Z,1015.22
2023-04-21T10:31:55.092Z,1015.20
2023-04-21T10:32:55.070Z,1015.23
2023-04-21T10:33:55.033Z,1015.19
2023-04-21T10:34:55.033Z,1015.18
2023-04-21T10:35:55.042Z,1015.14
2023-04-21T10:36:55.062Z,1015.21
2023-04-21T10:37:55.063Z,1015.20
2023-04-21T10:38:55.067Z,1015.22
2023-04-21T10:39:55.086Z,1015.11
2023-04-21T10:40:55.069Z,1015.12
2023-04-21T10:41:55.073Z,1015.12
2023-04-21T10:42:55.074Z,1015.06
2023-04-21T10:43:55.076Z,1015.09
2023-04-21T10:44:55.128Z,1015.12
2023-04-21T10:45:55.102Z,1015.07
2023-04-21T10:46:55.136Z,1015.07
2023-04-21T10:47:55.139Z,1015.07
2023-04-21T10:48:55.102Z,1015.10
2023-04-21T10:49:55.112Z,1015.07
2023-04-21T10:50:55.114Z,1015.10
2023-04-21T10:51:55.116Z,1015.05
2023-04-21T10:52:55.116Z,1015.04
2023-04-21T10:53:55.120Z,1015.02
2023-04-21T10:54:55.125Z,1015.01
2023-04-21T10:55:55.134Z,1015.00
2023-04-21T10:56:55.148Z,1014.94
2023-04-21T10:57:55.137Z,1014.92
2023-04-21T10:58:55.140Z,1014.93
2023-04-21T10:59:55.140Z,1014.89
2023-04-21T11:00:55.283Z,1014.91
2023-04-21T11:01:55.256Z,1014.87
2023-04-21T11:02:55.316Z,1014.84
2023-04-21T11:03:55.276Z,1014.84
2023-04-21T11:04:55.324Z,1014.87
2023-04-21T11:05:55.160Z,1014.82
2023-04-21T11:06:55.177Z,1014.79
2023-04-21T11:07:55.167Z,1014.83
2023-04-21T11:08:55.171Z,1014.80
2023-04-21T11:09:55.235Z,1014.83
2023-04-21T11:10:55.180Z,1014.74
2023-04-21T11:11:55.176Z,1014.73
2023-04-21T11:12:55.191Z,1014.73
2023-04-21T11:13:55.185Z,1014.70
2023-04-21T11:14:55.199Z,1014.72
2023-04-21T11:15:55.189Z,1014.75
2023-04-21T11:16:55.356Z,1014.73
2023-04-21T11:17:55.339Z,1014.69
2023-04-21T11:18:55.207Z,1014.69
2023-04-21T11:19:55.216Z,1014.63
2023-04-21T11:20:55.214Z,1014.59
2023-04-21T11:21:55.210Z,1014.69
2023-04-21T11:22:55.226Z,1014.59
2023-04-21T11:23:55.224Z,1014.58
2023-04-21T11:24:55.230Z,1014.58
2023-04-21T11:25:55.225Z,1014.57
2023-04-21T11:26:55.231Z,1014.58
2023-04-21T11:27:55.269Z,1014.59
2023-04-21T11:28:55.238Z,1014.61
2023-04-21T11:29:55.241Z,1014.60
2023-04-21T11:30:55.357Z,1014.61
2023-04-21T11:31:55.243Z,1014.57
2023-04-21T11:32:55.326Z,1014.55
2023-04-21T11:33:55.262Z,1014.56
2023-04-21T11:34:55.287Z,1014.51
2023-04-21T11:35:55.263Z,1014.56
2023-04-21T11:36:55.276Z,1014.52
2023-04-21T11:37:55.307Z,1014.50
2023-04-21T11:38:55.287Z,1014.48
2023-04-21T11:39:55.283Z,1014.45
2023-04-21T11:40:55.290Z,1014.43
2023-04-21T11:41:55.314Z,1014.43
2023-04-21T11:42:55.286Z,1014.44
2023-04-21T11:43:55.303Z,1014.42
2023-04-21T11:44:55.326Z,1014.40
2023-04-21T11:45:55.331Z,1014.43
2023-04-21T11:46:55.327Z,1014.39
2023-04-21T11:47:55.337Z,1014.37
2023-04-21T11:48:55.604Z,1014.41
2023-04-21T11:49:55.308Z,1014.40
2023-04-21T11:50:55.317Z,1014.47
2023-04-21T11:51:55.332Z,1014.45
2023-04-21T11:52:55.333Z,1014.44
2023-04-21T11:53:55.327Z,1014.42
2023-04-21T11:54:55.334Z,1014.47
2023-04-21T11:55:55.733Z,1014.51
2023-04-21T11:56:55.346Z,1014.55
2023-04-21T11:57:55.340Z,1014.51
2023-04-21T11:58:55.346Z,1014.52
2023-04-21T11:59:55.349Z,1014.56
2023-04-21T12:00:55.462Z,1014.55
2023-04-21T12:01:55.446Z,1014.53
2023-04-21T12:02:55.610Z,1014.51
2023-04-21T12:03:55.799Z,1014.55
2023-04-21T12:04:55.629Z,1014.48
2023-04-21T12:05:55.657Z,1014.54
2023-04-21T12:06:55.388Z,1014.50